Mulbarton, United Kingdom
Current Conditions -  °F | °C
As of 8:20 AM on Thursday 18 Dec 2014 (Local Time) from EGSH Reporting Station
Scattered Clouds Scattered Clouds  
Wind Chill: 54°   Ceiling: Unl
Heat Index: 54°   Visibility: 6mi
Dew Point: 52°   Wind: 17mph
Humidity: 94%   Direction: 230°SW
Pressure: 29.71"   Gusts: NA
Location:  52.56°N, 1.23°E
Report Text: EGSH 180820Z 23015KT 200V270 9999 SCT012 12/11 Q1006 TEMPO BKN012
Loading
Personal Weather Stations






























Interactive Weather Map New forecast layout! Learn more

10-Day Weather Forecast

Advertisements
Track Severe Weather on mobile